Rockford, Illinois
Current Conditions -  °F | °C
As of 7:19 PM on Sunday 23 Nov 2014 (Local Time) from KRFD Reporting Station
Light Rain Light Rain  
Wind Chill: 46°   Ceiling: 800
Heat Index: 49°   Visibility: 2mi
Dew Point: 47°   Wind: 7mph
Humidity: 93%   Direction: 110°ESE
Pressure: 29.3"   Gusts: NA
Location:  42.27°N, 89.08°W
Report Text: KRFD 240119Z 11006KT 2SM -RA BR BKN008 OVC012 09/08 A2930 RMK AO2 SFC VIS 2 1/2 P0002 T00940083
Loading
Personal Weather Stations






























Interactive Weather Map New forecast layout! Learn more

10-Day Weather Forecast

Advertisements
Track Severe Weather on mobile